Time;durP1;ratioP1;P1;durP2;ratioP2;P2;SDS_P1;SDS_P2;PMS_P1;PMS_P2;Temp;Humidity;BMP_temperature;BMP_pressure;BME280_temperature;BME280_humidity;BME280_pressure;Samples;Min_cycle;Max_cycle;Signal;HPM_P1;HPM_P2
2022/06/05 00:03:39;;;;;;;11.40;6.25;;;;;;;;;;10522945;28;20078;-77
2022/06/05 00:08:50;;;;;;;11.40;6.50;;;;;;;;;;10512155;28;20037;-76
2022/06/05 00:13:55;;;;;;;11.07;6.70;;;;;;;;;;10515500;28;20082;-76
2022/06/05 00:18:58;;;;;;;10.93;6.35;;;;;;;;;;10509906;28;20044;-79
2022/06/05 00:24:01;;;;;;;11.27;6.30;;;;;;;;;;10511310;28;20408;-78
2022/06/05 00:29:11;;;;;;;10.83;5.93;;;;;;;;;;10509781;28;20223;-77
2022/06/05 00:34:14;;;;;;;12.77;6.47;;;;;;;;;;10505287;28;20460;-75
2022/06/05 00:39:20;;;;;;;9.35;5.75;;;;;;;;;;10496770;28;20765;-76
2022/06/05 00:44:27;;;;;;;10.27;6.18;;;;;;;;;;10517487;28;20044;-77
2022/06/05 00:49:33;;;;;;;11.20;6.13;;;;;;;;;;10504354;28;20043;-75
2022/06/05 00:54:36;;;;;;;13.80;6.53;;;;;;;;;;10503070;28;20360;-77
2022/06/05 00:59:41;;;;;;;11.73;5.90;;;;;;;;;;10518393;28;20044;-77
2022/06/05 01:04:46;;;;;;;10.55;6.40;;;;;;;;;;10515484;28;20036;-76
2022/06/05 01:09:49;;;;;;;13.65;6.10;;;;;;;;;;10507894;28;20377;-77
2022/06/05 01:14:59;;;;;;;9.10;5.28;;;;;;;;;;10507204;28;20120;-77
2022/06/05 01:20:06;;;;;;;9.65;6.18;;;;;;;;;;10504185;28;20199;-76
2022/06/05 01:25:15;;;;;;;10.50;6.10;;;;;;;;;;10509514;28;20035;-79
2022/06/05 01:30:26;;;;;;;13.02;6.28;;;;;;;;;;10514583;28;20048;-77
2022/06/05 01:35:36;;;;;;;13.85;6.82;;;;;;;;;;10506740;28;20040;-77
2022/06/05 01:40:45;;;;;;;13.48;6.78;;;;;;;;;;10514131;28;20036;-78
2022/06/05 01:45:50;;;;;;;15.77;7.22;;;;;;;;;;10510889;28;20087;-78
2022/06/05 01:50:55;;;;;;;11.98;6.65;;;;;;;;;;10509855;28;20070;-77
2022/06/05 01:56:00;;;;;;;14.52;7.07;;;;;;;;;;10513089;28;20572;-78
2022/06/05 02:01:07;;;;;;;12.15;6.75;;;;;;;;;;10510738;28;20040;-77
2022/06/05 02:06:11;;;;;;;14.35;7.30;;;;;;;;;;10512833;28;20043;-77
2022/06/05 02:11:17;;;;;;;15.38;7.20;;;;;;;;;;10505066;28;20547;-78
2022/06/05 02:16:21;;;;;;;12.23;6.60;;;;;;;;;;10511835;28;20123;-77
2022/06/05 02:21:24;;;;;;;10.90;6.50;;;;;;;;;;10511828;28;20423;-77
2022/06/05 02:26:27;;;;;;;10.77;7.07;;;;;;;;;;10502350;28;20059;-76
2022/06/05 02:31:35;;;;;;;14.10;7.30;;;;;;;;;;10501711;28;20037;-77
2022/06/05 02:36:43;;;;;;;11.77;6.80;;;;;;;;;;10499789;28;20044;-77
2022/06/05 02:41:49;;;;;;;14.38;6.82;;;;;;;;;;10510206;28;20040;-77
2022/06/05 02:46:58;;;;;;;11.98;6.57;;;;;;;;;;10512263;28;20090;-77
2022/06/05 02:52:04;;;;;;;11.60;6.07;;;;;;;;;;10509056;28;20032;-77
2022/06/05 02:57:06;;;;;;;12.65;7.25;;;;;;;;;;10507032;28;20092;-76
2022/06/05 03:07:31;;;;;;;14.30;7.00;;;;;;;;;;10506918;28;20079;-75
2022/06/05 03:12:35;;;;;;;;;;;;;;;;;;10503364;28;20120;-77
2022/06/05 03:17:39;;;;;;;12.60;6.03;;;;;;;;;;10497020;28;19924;-75
2022/06/05 03:22:42;;;;;;;12.75;6.30;;;;;;;;;;10509124;28;20093;-75
2022/06/05 03:27:45;;;;;;;16.73;6.93;;;;;;;;;;10518451;28;20036;-76
2022/06/05 03:32:48;;;;;;;;;;;;;;;;;;10506606;28;20541;-76
2022/06/05 03:37:52;;;;;;;11.30;6.05;;;;;;;;;;10503428;28;19963;-77
2022/06/05 03:42:55;;;;;;;10.27;5.95;;;;;;;;;;10500037;28;20063;-77
2022/06/05 03:47:58;;;;;;;11.30;5.23;;;;;;;;;;10517444;28;20047;-78
2022/06/05 03:53:02;;;;;;;9.33;5.20;;;;;;;;;;10515081;28;20334;-77
2022/06/05 03:58:05;;;;;;;10.27;5.03;;;;;;;;;;10512091;28;20149;-76
2022/06/05 04:03:08;;;;;;;9.07;5.63;;;;;;;;;;10513156;28;20086;-77
2022/06/05 04:08:14;;;;;;;9.63;5.80;;;;;;;;;;10514549;28;20037;-78
2022/06/05 04:13:18;;;;;;;8.98;4.75;;;;;;;;;;10521407;28;20506;-77
2022/06/05 04:18:40;;;;;;;11.25;5.57;;;;;;;;;;10508961;28;20032;-78
2022/06/05 04:23:44;;;;;;;12.43;5.13;;;;;;;;;;10515156;28;20071;-78
2022/06/05 04:28:47;;;;;;;10.98;5.28;;;;;;;;;;10519733;28;20067;-78
2022/06/05 04:33:51;;;;;;;8.27;4.38;;;;;;;;;;10518423;28;20071;-78
2022/06/05 04:38:55;;;;;;;10.00;5.28;;;;;;;;;;10514661;28;20036;-78
2022/06/05 04:43:58;;;;;;;6.75;4.15;;;;;;;;;;10514755;28;20083;-77
2022/06/05 04:49:02;;;;;;;8.18;4.68;;;;;;;;;;10511557;28;20089;-77
2022/06/05 04:54:07;;;;;;;6.83;4.60;;;;;;;;;;10516261;28;20031;-78
2022/06/05 04:59:10;;;;;;;7.30;4.28;;;;;;;;;;10515363;28;20055;-78
2022/06/05 05:04:13;;;;;;;7.93;4.38;;;;;;;;;;10495025;28;20527;-76
2022/06/05 05:09:18;;;;;;;7.88;4.40;;;;;;;;;;10495723;28;20048;-78
2022/06/05 05:14:20;;;;;;;7.45;4.18;;;;;;;;;;10495968;28;20059;-76
2022/06/05 05:19:23;;;;;;;6.90;3.80;;;;;;;;;;10502705;28;20040;-79
2022/06/05 05:24:27;;;;;;;6.97;4.03;;;;;;;;;;10503746;28;20044;-78
2022/06/05 05:29:30;;;;;;;10.30;4.05;;;;;;;;;;10503630;28;20041;-77
2022/06/05 05:34:33;;;;;;;7.68;3.70;;;;;;;;;;10502052;28;20040;-77
2022/06/05 05:44:57;;;;;;;9.00;4.05;;;;;;;;;;10507994;28;20040;-77
2022/06/05 05:50:01;;;;;;;5.38;2.97;;;;;;;;;;10510060;28;20036;-77
2022/06/05 05:55:07;;;;;;;6.72;3.90;;;;;;;;;;10515907;28;20032;-78
2022/06/05 06:00:14;;;;;;;5.93;3.05;;;;;;;;;;10519287;28;20029;-77
2022/06/05 06:05:17;;;;;;;6.25;3.78;;;;;;;;;;10517393;28;20094;-77
2022/06/05 06:10:22;;;;;;;7.03;3.90;;;;;;;;;;10524437;28;20037;-77
2022/06/05 06:15:25;;;;;;;5.88;3.85;;;;;;;;;;10533102;28;20051;-78
2022/06/05 06:20:28;;;;;;;6.00;3.60;;;;;;;;;;10536139;28;20029;-77
2022/06/05 06:25:32;;;;;;;8.13;4.22;;;;;;;;;;10521463;28;20044;-77
2022/06/05 06:30:35;;;;;;;6.72;3.50;;;;;;;;;;10527824;28;20033;-77
2022/06/05 06:35:38;;;;;;;7.45;4.22;;;;;;;;;;10512947;28;20067;-77
2022/06/05 06:40:44;;;;;;;8.18;3.88;;;;;;;;;;10517934;28;20479;-78
2022/06/05 06:45:54;;;;;;;7.45;3.85;;;;;;;;;;10507325;28;20146;-77
2022/06/05 06:50:56;;;;;;;;;;;;;;;;;;10505022;28;20040;-77
2022/06/05 06:56:00;;;;;;;7.68;3.70;;;;;;;;;;10502392;28;20018;-77
2022/06/05 07:01:04;;;;;;;8.20;4.35;;;;;;;;;;10503893;28;20040;-76
2022/06/05 07:06:09;;;;;;;6.25;3.90;;;;;;;;;;10505285;28;20098;-78
2022/06/05 07:11:14;;;;;;;9.75;4.05;;;;;;;;;;10491259;28;20031;-78
2022/06/05 07:16:22;;;;;;;9.40;4.05;;;;;;;;;;10498193;28;20051;-77
2022/06/05 07:21:28;;;;;;;7.80;4.10;;;;;;;;;;10496877;28;20041;-79
2022/06/05 07:26:33;;;;;;;7.40;4.63;;;;;;;;;;10494107;28;20052;-76
2022/06/05 07:31:36;;;;;;;9.25;4.30;;;;;;;;;;10496896;28;20499;-77
2022/06/05 07:36:40;;;;;;;5.82;3.92;;;;;;;;;;10497713;28;20064;-78
2022/06/05 07:41:45;;;;;;;6.25;3.53;;;;;;;;;;10504156;28;20024;-77
2022/06/05 07:46:48;;;;;;;5.88;4.25;;;;;;;;;;10496099;28;20099;-74
2022/06/05 07:57:13;;;;;;;9.65;4.03;;;;;;;;;;10496226;28;20084;-74
2022/06/05 08:02:18;;;;;;;7.97;4.40;;;;;;;;;;10505275;28;20138;-74
2022/06/05 08:07:22;;;;;;;9.05;4.32;;;;;;;;;;10492416;28;20040;-77
2022/06/05 08:12:29;;;;;;;8.07;4.88;;;;;;;;;;10507603;28;20037;-75
2022/06/05 08:17:32;;;;;;;8.48;5.10;;;;;;;;;;10501329;28;20377;-75
2022/06/05 08:22:35;;;;;;;10.45;5.00;;;;;;;;;;10502858;28;20028;-74
2022/06/05 08:27:39;;;;;;;8.68;5.82;;;;;;;;;;10501081;28;20508;-74
2022/06/05 08:32:41;;;;;;;7.65;5.38;;;;;;;;;;10508805;28;20040;-75
2022/06/05 08:43:12;;;;;;;7.80;5.53;;;;;;;;;;10503912;28;20132;-75
2022/06/05 08:48:18;;;;;;;10.30;5.60;;;;;;;;;;10503841;28;20043;-75
2022/06/05 08:53:30;;;;;;;6.47;4.88;;;;;;;;;;10503976;28;20042;-74
2022/06/05 08:58:39;;;;;;;7.90;5.25;;;;;;;;;;10503940;28;20058;-74
2022/06/05 09:03:48;;;;;;;6.90;5.13;;;;;;;;;;10496981;28;20032;-74
2022/06/05 09:08:54;;;;;;;9.30;5.38;;;;;;;;;;10496819;28;20451;-74
2022/06/05 09:14:09;;;;;;;11.80;5.47;;;;;;;;;;10498801;28;20059;-76
2022/06/05 09:19:15;;;;;;;7.30;5.10;;;;;;;;;;10502995;28;20039;-77
2022/06/05 09:24:23;;;;;;;8.38;5.20;;;;;;;;;;10499172;28;20785;-74
2022/06/05 09:29:32;;;;;;;9.38;6.22;;;;;;;;;;10505181;28;20181;-74
2022/06/05 09:34:38;;;;;;;8.00;6.10;;;;;;;;;;10499058;28;20106;-74
2022/06/05 09:39:45;;;;;;;8.63;6.40;;;;;;;;;;10502521;28;20117;-75
2022/06/05 09:44:57;;;;;;;8.60;6.10;;;;;;;;;;10497774;28;20032;-76
2022/06/05 09:50:01;;;;;;;9.80;6.90;;;;;;;;;;10494974;28;20072;-76
2022/06/05 09:55:09;;;;;;;9.32;6.55;;;;;;;;;;10490785;28;20163;-74
2022/06/05 10:00:15;;;;;;;12.85;8.82;;;;;;;;;;10496587;28;20044;-76
2022/06/05 10:05:23;;;;;;;11.50;8.13;;;;;;;;;;10497913;28;20159;-73
2022/06/05 10:10:27;;;;;;;10.20;6.72;;;;;;;;;;10497017;28;20148;-76
2022/06/05 10:15:33;;;;;;;11.95;7.50;;;;;;;;;;10491877;28;20033;-76
2022/06/05 10:20:42;;;;;;;9.88;6.70;;;;;;;;;;10494934;28;20075;-76
2022/06/05 10:25:48;;;;;;;10.82;7.30;;;;;;;;;;10495906;28;20043;-77
2022/06/05 10:30:57;;;;;;;11.52;6.93;;;;;;;;;;10499909;28;20130;-78
2022/06/05 10:36:02;;;;;;;9.35;6.60;;;;;;;;;;10497705;28;20040;-76
2022/06/05 10:41:14;;;;;;;12.55;7.57;;;;;;;;;;10495964;28;20486;-75
2022/06/05 10:46:25;;;;;;;11.43;7.43;;;;;;;;;;10494793;28;20048;-76
2022/06/05 10:51:32;;;;;;;11.77;7.43;;;;;;;;;;10496852;28;20498;-76
2022/06/05 10:56:42;;;;;;;14.52;8.63;;;;;;;;;;10491540;28;20040;-76
2022/06/05 11:02:01;;;;;;;11.57;8.52;;;;;;;;;;10495089;28;20044;-74
2022/06/05 11:07:14;;;;;;;11.75;8.35;;;;;;;;;;10491017;28;20162;-76
2022/06/05 11:17:49;;;;;;;12.27;8.95;;;;;;;;;;10495351;28;20044;-75
2022/06/05 11:22:55;;;;;;;12.23;8.73;;;;;;;;;;10497083;28;20043;-73
2022/06/05 11:28:01;;;;;;;11.10;8.00;;;;;;;;;;10496072;28;20044;-74
2022/06/05 11:33:10;;;;;;;10.18;7.63;;;;;;;;;;10502727;28;20120;-76
2022/06/05 11:38:20;;;;;;;12.00;8.40;;;;;;;;;;10497016;28;20047;-75
2022/06/05 11:43:27;;;;;;;11.25;8.93;;;;;;;;;;10504595;28;20032;-75
2022/06/05 11:48:53;;;;;;;10.63;8.05;;;;;;;;;;10515840;28;20064;-75
2022/06/05 11:54:02;;;;;;;10.55;8.68;;;;;;;;;;10516452;28;20515;-75
2022/06/05 11:59:10;;;;;;;10.27;8.50;;;;;;;;;;10516471;28;20064;-75
2022/06/05 12:04:18;;;;;;;12.52;9.13;;;;;;;;;;10508639;28;20032;-75
2022/06/05 12:09:22;;;;;;;11.48;8.93;;;;;;;;;;10504259;28;20040;-74
2022/06/05 12:14:26;;;;;;;10.80;8.57;;;;;;;;;;10498997;28;20032;-77
2022/06/05 12:19:37;;;;;;;12.40;8.52;;;;;;;;;;10505932;28;20040;-76
2022/06/05 12:24:43;;;;;;;13.80;9.05;;;;;;;;;;10502406;28;20138;-76
2022/06/05 12:29:49;;;;;;;14.70;8.90;;;;;;;;;;10494688;28;20051;-75
2022/06/05 12:34:58;;;;;;;12.40;8.65;;;;;;;;;;10510523;28;20033;-75
2022/06/05 12:40:00;;;;;;;11.35;8.48;;;;;;;;;;10505700;28;20064;-75
2022/06/05 12:45:05;;;;;;;12.65;8.10;;;;;;;;;;10509329;28;20502;-74
2022/06/05 12:50:20;;;;;;;13.00;8.65;;;;;;;;;;10506615;28;20047;-78
2022/06/05 12:55:24;;;;;;;11.95;7.60;;;;;;;;;;10501252;28;20040;-76
2022/06/05 13:00:33;;;;;;;11.75;8.60;;;;;;;;;;10500278;28;20040;-76
2022/06/05 13:05:40;;;;;;;11.05;7.68;;;;;;;;;;10503068;28;20573;-76
2022/06/05 13:10:47;;;;;;;13.75;8.48;;;;;;;;;;10501545;28;20496;-76
2022/06/05 13:15:52;;;;;;;12.38;8.43;;;;;;;;;;10500525;28;20063;-76
2022/06/05 13:21:02;;;;;;;11.68;8.52;;;;;;;;;;10502423;28;20131;-80
2022/06/05 13:26:11;;;;;;;12.23;9.63;;;;;;;;;;10509507;28;20024;-80
2022/06/05 13:31:17;;;;;;;14.80;8.90;;;;;;;;;;10510685;28;20040;-80
2022/06/05 13:36:29;;;;;;;13.57;9.18;;;;;;;;;;10506863;28;20040;-80
2022/06/05 13:41:36;;;;;;;16.38;9.80;;;;;;;;;;10509897;28;20051;-79
2022/06/05 13:46:42;;;;;;;17.00;9.43;;;;;;;;;;10510708;28;20054;-80
2022/06/05 13:51:48;;;;;;;13.13;9.80;;;;;;;;;;10516806;28;20043;-81
2022/06/05 13:56:54;;;;;;;16.63;9.85;;;;;;;;;;10508909;28;20060;-81
2022/06/05 14:02:06;;;;;;;14.88;9.73;;;;;;;;;;10512529;28;20530;-81
2022/06/05 14:07:13;;;;;;;15.57;10.60;;;;;;;;;;10512826;28;20249;-81
2022/06/05 14:12:20;;;;;;;15.35;10.50;;;;;;;;;;10523741;28;20025;-80
2022/06/05 14:17:25;;;;;;;16.33;10.70;;;;;;;;;;10519098;28;20119;-77
2022/06/05 14:22:32;;;;;;;16.05;9.70;;;;;;;;;;10515840;28;20056;-80
2022/06/05 14:27:36;;;;;;;17.90;10.10;;;;;;;;;;10509380;28;20036;-78
2022/06/05 14:32:39;;;;;;;15.50;9.60;;;;;;;;;;10508528;28;20055;-79
2022/06/05 14:37:46;;;;;;;15.93;10.88;;;;;;;;;;10518570;28;20040;-80
2022/06/05 14:42:53;;;;;;;16.08;10.25;;;;;;;;;;10513482;28;20071;-79
2022/06/05 14:48:04;;;;;;;20.60;11.65;;;;;;;;;;10508017;28;20097;-80
2022/06/05 14:53:13;;;;;;;24.98;13.13;;;;;;;;;;10512436;28;20051;-80
2022/06/05 14:58:19;;;;;;;19.65;12.75;;;;;;;;;;10514360;28;20056;-82
2022/06/05 15:03:24;;;;;;;20.92;13.60;;;;;;;;;;10506162;28;20389;-79
2022/06/05 15:08:34;;;;;;;21.63;11.77;;;;;;;;;;10514426;28;20044;-81
2022/06/05 15:13:38;;;;;;;17.73;12.82;;;;;;;;;;10507260;28;20579;-81
2022/06/05 15:18:42;;;;;;;21.80;8.10;;;;;;;;;;10510838;28;20044;-82
2022/06/05 15:23:57;;;;;;;11.43;4.43;;;;;;;;;;10520914;28;20025;-82
2022/06/05 15:29:07;;;;;;;4.85;3.00;;;;;;;;;;10516004;28;20516;-83
2022/06/05 15:34:15;;;;;;;5.20;3.10;;;;;;;;;;10516541;28;20093;-80
2022/06/05 15:39:26;;;;;;;4.88;2.88;;;;;;;;;;10516236;28;20648;-83
2022/06/05 15:44:38;;;;;;;6.55;2.30;;;;;;;;;;10523765;28;20040;-82
2022/06/05 15:49:47;;;;;;;5.47;2.17;;;;;;;;;;10511616;28;20057;-81
2022/06/05 15:54:57;;;;;;;4.07;1.63;;;;;;;;;;10524026;28;20119;-83
2022/06/05 16:00:02;;;;;;;5.30;1.85;;;;;;;;;;10525680;28;20098;-82
2022/06/05 16:05:07;;;;;;;2.28;1.27;;;;;;;;;;10518198;28;20034;-85
2022/06/05 16:10:16;;;;;;;6.63;1.58;;;;;;;;;;10518878;28;20282;-84
2022/06/05 16:15:23;;;;;;;4.78;2.00;;;;;;;;;;10517034;28;20036;-85
2022/06/05 16:20:39;;;;;;;4.60;1.80;;;;;;;;;;10521198;28;20036;-86
2022/06/05 16:25:46;;;;;;;6.35;2.50;;;;;;;;;;10514733;28;20024;-81
2022/06/05 16:30:51;;;;;;;6.03;2.30;;;;;;;;;;10506768;28;20545;-83
2022/06/05 16:41:17;;;;;;;;;;;;;;;;;;10494839;28;20501;-83
2022/06/05 16:46:30;;;;;;;6.95;2.50;;;;;;;;;;10499905;28;19974;-81
2022/06/05 16:51:41;;;;;;;5.30;2.40;;;;;;;;;;10511776;28;20047;-84
2022/06/05 16:57:08;;;;;;;4.68;2.35;;;;;;;;;;10511504;28;20040;-83
2022/06/05 17:02:13;;;;;;;5.63;2.60;;;;;;;;;;10512086;28;20033;-85
2022/06/05 17:07:21;;;;;;;9.80;2.45;;;;;;;;;;10506570;28;20032;-83
2022/06/05 17:12:33;;;;;;;4.40;1.73;;;;;;;;;;10510812;28;20044;-83
2022/06/05 17:17:43;;;;;;;8.45;3.13;;;;;;;;;;10511464;28;20045;-78
2022/06/05 17:22:50;;;;;;;6.65;2.00;;;;;;;;;;10511162;28;20037;-81
2022/06/05 17:28:04;;;;;;;5.35;2.33;;;;;;;;;;10508331;28;20409;-83
2022/06/05 17:33:18;;;;;;;5.97;2.20;;;;;;;;;;10515625;28;20491;-84
2022/06/05 17:38:20;;;;;;;;;;;;;;;;;;10512750;28;20059;-83
2022/06/05 17:43:29;;;;;;;3.60;1.70;;;;;;;;;;10524690;28;20433;-85
2022/06/05 17:48:47;;;;;;;2.75;1.25;;;;;;;;;;10512575;28;20411;-83
2022/06/05 17:53:52;;;;;;;1.55;0.93;;;;;;;;;;10463922;28;20157;-85
2022/06/05 17:58:55;;;;;;;4.82;1.60;;;;;;;;;;10516070;28;20153;-82
2022/06/05 18:03:58;;;;;;;5.77;1.63;;;;;;;;;;10511246;28;20077;-82
2022/06/05 18:09:16;;;;;;;8.02;2.58;;;;;;;;;;10516504;28;20104;-82
2022/06/05 18:14:24;;;;;;;5.03;1.70;;;;;;;;;;10514004;28;20094;-84
2022/06/05 18:19:30;;;;;;;5.47;1.83;;;;;;;;;;10513028;28;20040;-85
2022/06/05 18:24:53;;;;;;;2.38;1.15;;;;;;;;;;10513358;28;20041;-84
2022/06/05 18:30:00;;;;;;;3.03;1.92;;;;;;;;;;10516056;28;20056;-83
2022/06/05 18:35:06;;;;;;;4.18;1.98;;;;;;;;;;10514808;28;20028;-82
2022/06/05 18:40:14;;;;;;;5.22;1.85;;;;;;;;;;10510016;28;20036;-84
2022/06/05 18:45:20;;;;;;;5.13;2.65;;;;;;;;;;10502229;28;20044;-85
2022/06/05 18:50:25;;;;;;;13.68;6.68;;;;;;;;;;10516803;28;20145;-82
2022/06/05 18:55:31;;;;;;;4.80;2.45;;;;;;;;;;10508276;28;20420;-86
2022/06/05 19:00:35;;;;;;;5.18;2.50;;;;;;;;;;10512036;28;20040;-83
2022/06/05 19:05:39;;;;;;;11.10;4.88;;;;;;;;;;10506825;28;20370;-81
2022/06/05 19:10:44;;;;;;;4.20;2.10;;;;;;;;;;10510333;28;20044;-84
2022/06/05 19:15:48;;;;;;;4.43;1.90;;;;;;;;;;10504966;28;20048;-80
2022/06/05 19:20:54;;;;;;;4.40;1.80;;;;;;;;;;10496498;28;20123;-81
2022/06/05 19:25:59;;;;;;;6.63;2.13;;;;;;;;;;10501805;28;20669;-83
2022/06/05 19:31:03;;;;;;;4.03;1.92;;;;;;;;;;10504282;28;20500;-80
2022/06/05 19:41:30;;;;;;;8.75;2.30;;;;;;;;;;10497465;28;20040;-81
2022/06/05 19:46:34;;;;;;;6.50;2.80;;;;;;;;;;10501772;28;20575;-82
2022/06/05 19:51:38;;;;;;;7.32;2.38;;;;;;;;;;10506981;28;20538;-79
2022/06/05 19:57:07;;;;;;;5.40;2.00;;;;;;;;;;10505922;28;20062;-84
2022/06/05 20:02:19;;;;;;;5.38;2.70;;;;;;;;;;10513418;28;20105;-83
2022/06/05 20:07:28;;;;;;;5.10;2.40;;;;;;;;;;10518007;28;20562;-83
2022/06/05 20:12:38;;;;;;;7.32;3.83;;;;;;;;;;10502397;28;20498;-81
2022/06/05 20:17:53;;;;;;;4.32;2.90;;;;;;;;;;10507003;28;20085;-82
2022/06/05 20:22:59;;;;;;;5.05;2.17;;;;;;;;;;10498112;28;20036;-84
2022/06/05 20:28:05;;;;;;;4.25;2.10;;;;;;;;;;10523064;28;20081;-85
2022/06/05 20:33:19;;;;;;;6.60;3.15;;;;;;;;;;10503519;28;20036;-82
2022/06/05 20:38:22;;;;;;;10.10;3.58;;;;;;;;;;10505919;28;20048;-82
2022/06/05 20:43:28;;;;;;;2.53;1.80;;;;;;;;;;10504575;28;20040;-83
2022/06/05 20:48:33;;;;;;;6.03;2.75;;;;;;;;;;10499237;28;20024;-81
2022/06/05 20:53:39;;;;;;;2.65;1.70;;;;;;;;;;10499165;28;20040;-84
2022/06/05 20:58:46;;;;;;;5.15;2.08;;;;;;;;;;10510915;28;20471;-82
2022/06/05 21:09:12;;;;;;;1.95;1.40;;;;;;;;;;10512481;28;20044;-81
2022/06/05 21:19:40;;;;;;;3.88;1.55;;;;;;;;;;10503857;28;20090;-80
2022/06/05 21:24:47;;;;;;;3.70;1.98;;;;;;;;;;10500932;28;20040;-82
2022/06/05 21:29:53;;;;;;;5.15;2.00;;;;;;;;;;10514403;28;20071;-81
2022/06/05 21:34:57;;;;;;;6.55;2.83;;;;;;;;;;10499706;28;20040;-82
2022/06/05 21:40:03;;;;;;;7.00;2.17;;;;;;;;;;10495579;28;20040;-81
2022/06/05 21:45:10;;;;;;;4.80;1.55;;;;;;;;;;10506475;28;20063;-82
2022/06/05 21:50:14;;;;;;;3.72;1.73;;;;;;;;;;10509231;28;20366;-83
2022/06/05 21:55:21;;;;;;;4.40;1.75;;;;;;;;;;10510191;28;20044;-83
2022/06/05 22:00:33;;;;;;;3.80;2.05;;;;;;;;;;10512341;28;20147;-82
2022/06/05 22:05:36;;;;;;;1.92;1.27;;;;;;;;;;10510001;28;20079;-83
2022/06/05 22:10:40;;;;;;;3.72;1.88;;;;;;;;;;10512525;28;20469;-80
2022/06/05 22:15:44;;;;;;;4.27;1.77;;;;;;;;;;10497454;28;20024;-81
2022/06/05 22:20:47;;;;;;;5.25;2.33;;;;;;;;;;10502216;28;20822;-82
2022/06/05 22:25:50;;;;;;;5.40;2.80;;;;;;;;;;10504143;28;20070;-81
2022/06/05 22:30:54;;;;;;;11.77;3.07;;;;;;;;;;10499425;28;20028;-84
2022/06/05 22:35:58;;;;;;;6.93;2.70;;;;;;;;;;10508960;28;20051;-82
2022/06/05 22:41:01;;;;;;;2.40;1.42;;;;;;;;;;10495373;28;20471;-83
2022/06/05 22:46:05;;;;;;;7.00;2.70;;;;;;;;;;10503439;28;20032;-83
2022/06/05 22:51:09;;;;;;;5.03;2.33;;;;;;;;;;10494105;28;20174;-82
2022/06/05 22:56:13;;;;;;;5.03;2.53;;;;;;;;;;10493846;28;20044;-85
2022/06/05 23:01:23;;;;;;;8.68;3.38;;;;;;;;;;10505397;28;20063;-83
2022/06/05 23:06:26;;;;;;;5.28;2.50;;;;;;;;;;10499581;28;20041;-84
2022/06/05 23:11:30;;;;;;;4.95;1.73;;;;;;;;;;10516926;28;20132;-84
2022/06/05 23:16:34;;;;;;;7.28;2.40;;;;;;;;;;10496041;28;20090;-83
2022/06/05 23:21:37;;;;;;;3.35;1.25;;;;;;;;;;10512035;28;20050;-83
2022/06/05 23:26:40;;;;;;;5.97;3.40;;;;;;;;;;10507160;28;20118;-86
2022/06/05 23:31:45;;;;;;;3.50;1.92;;;;;;;;;;10518567;28;20047;-82
2022/06/05 23:36:48;;;;;;;4.90;2.30;;;;;;;;;;10512917;28;20128;-84
2022/06/05 23:41:51;;;;;;;4.32;2.40;;;;;;;;;;10524111;28;20074;-85
2022/06/05 23:46:55;;;;;;;4.35;2.40;;;;;;;;;;10521006;28;20032;-82
2022/06/05 23:51:58;;;;;;;3.38;1.75;;;;;;;;;;10510523;28;20052;-81
